Meishomaru — JD3044 — position and weather

sailwx.info

Track history (hours):
 
Tides and Currents Weather Stations Pressure Air Temp Water Temp Dewpoint Dewpoint Depression Visibility Wind Speed Wind Dir Waves Ship Positions

Meishomaru

Last reported at 2014-Nov-26 09:05 UTC. Time now 2014-Nov-27 01:45 UTC.
Position N 35°12' E 139°46'.

Length 68 m; draft 4 m.

Type: Tanker. MMSI: 431001216.

Date/timePositionNaut miles runAvg speedWind from/ knotsBaromVisibWave heightAir tempDewpointWater temp
2014-Nov-26 09:05N 35°12' E 139°46'611.3
2014-Nov-26 08:33N 35°18' E 139°44'1010.0
2014-Nov-26 07:33N 35°27' E 139°48'7 0.8
2014-Nov-25 23:07N 35°29' E 139°56'5 0.3
2014-Nov-25 08:32N 35°28' E 139°51'1110.8
2014-Nov-25 07:33N 35°19' E 139°44'  
2014-Nov-18 05:15N 35°15' E 139°46'811.6
2014-Nov-18 04:33N 35°23' E 139°42'12 1.7
2014-Nov-17 21:31N 35°28' E 139°56'0 0.0
2014-Nov-17 19:31N 35°28' E 139°56'0 0.0
2014-Nov-17 18:31N 35°28' E 139°56'0 0.0
2014-Nov-17 17:31N 35°28' E 139°56'0 0.0
2014-Nov-17 16:32N 35°28' E 139°56'9 9.1
2014-Nov-17 15:33N 35°24' E 139°46'1111.2
2014-Nov-17 14:33N 35°13' E 139°47'2 0.1
2014-Nov-16 09:15N 35°15' E 139°46'  
Track history (hours):
 
Tides and Currents Weather Stations Pressure Air Temp Water Temp Dewpoint Dewpoint Depression Visibility Wind Speed Wind Dir Waves Ship Positions

Meishomaru

Last reported at 2014-Nov-26 09:05 UTC. Time now 2014-Nov-27 01:45 UTC.
Position N 35°12' E 139°46'.

Length 68 m; draft 4 m.

Type: Tanker. MMSI: 431001216.

Date/timePositionNaut miles runAvg speedWind from/ knotsBaromVisibWave heightAir tempDewpointWater temp
2014-Nov-26 09:05N 35°12' E 139°46'611.3
2014-Nov-26 08:33N 35°18' E 139°44'1010.0
2014-Nov-26 07:33N 35°27' E 139°48'7 0.8
2014-Nov-25 23:07N 35°29' E 139°56'5 0.3
2014-Nov-25 08:32N 35°28' E 139°51'1110.8
2014-Nov-25 07:33N 35°19' E 139°44'  
2014-Nov-18 05:15N 35°15' E 139°46'811.6
2014-Nov-18 04:33N 35°23' E 139°42'12 1.7
2014-Nov-17 21:31N 35°28' E 139°56'0 0.0
2014-Nov-17 19:31N 35°28' E 139°56'0 0.0
2014-Nov-17 18:31N 35°28' E 139°56'0 0.0
2014-Nov-17 17:31N 35°28' E 139°56'0 0.0
2014-Nov-17 16:32N 35°28' E 139°56'9 9.1
2014-Nov-17 15:33N 35°24' E 139°46'1111.2
2014-Nov-17 14:33N 35°13' E 139°47'2 0.1
2014-Nov-16 09:15N 35°15' E 139°46'  

Dump ship's entire track history